sensor_id;sensor_type;location;lat;lon;timestamp;P1;durP1;ratioP1;P2;durP2;ratioP2
60588;SDS011;46421;48.610;9.334;2023-09-08T00:00:37;6.90;;;3.40;;
60588;SDS011;46421;48.610;9.334;2023-09-08T00:03:02;6.53;;;3.53;;
60588;SDS011;46421;48.610;9.334;2023-09-08T00:05:27;6.78;;;3.75;;
60588;SDS011;46421;48.610;9.334;2023-09-08T00:07:53;6.57;;;3.63;;
60588;SDS011;46421;48.610;9.334;2023-09-08T00:10:18;6.70;;;3.73;;
60588;SDS011;46421;48.610;9.334;2023-09-08T00:12:43;7.97;;;4.30;;
60588;SDS011;46421;48.610;9.334;2023-09-08T00:15:08;6.50;;;3.33;;
60588;SDS011;46421;48.610;9.334;2023-09-08T00:17:34;7.03;;;3.42;;
60588;SDS011;46421;48.610;9.334;2023-09-08T00:19:59;6.57;;;3.30;;
60588;SDS011;46421;48.610;9.334;2023-09-08T00:22:24;8.40;;;3.83;;
60588;SDS011;46421;48.610;9.334;2023-09-08T00:24:49;7.60;;;3.23;;
60588;SDS011;46421;48.610;9.334;2023-09-08T00:27:15;7.93;;;3.47;;
60588;SDS011;46421;48.610;9.334;2023-09-08T00:29:40;6.80;;;3.67;;
60588;SDS011;46421;48.610;9.334;2023-09-08T00:32:05;6.57;;;3.30;;
60588;SDS011;46421;48.610;9.334;2023-09-08T00:34:30;6.93;;;3.93;;
60588;SDS011;46421;48.610;9.334;2023-09-08T00:36:55;6.73;;;3.90;;
60588;SDS011;46421;48.610;9.334;2023-09-08T00:39:21;9.23;;;3.67;;
60588;SDS011;46421;48.610;9.334;2023-09-08T00:41:46;8.63;;;3.73;;
60588;SDS011;46421;48.610;9.334;2023-09-08T00:44:11;7.50;;;3.57;;
60588;SDS011;46421;48.610;9.334;2023-09-08T00:46:36;8.40;;;4.30;;
60588;SDS011;46421;48.610;9.334;2023-09-08T00:49:02;7.38;;;3.70;;
60588;SDS011;46421;48.610;9.334;2023-09-08T00:51:27;6.30;;;3.33;;
60588;SDS011;46421;48.610;9.334;2023-09-08T00:53:52;8.07;;;3.60;;
60588;SDS011;46421;48.610;9.334;2023-09-08T00:56:18;7.85;;;3.67;;
60588;SDS011;46421;48.610;9.334;2023-09-08T00:58:43;6.50;;;3.17;;
60588;SDS011;46421;48.610;9.334;2023-09-08T01:01:08;7.30;;;3.85;;
60588;SDS011;46421;48.610;9.334;2023-09-08T01:03:33;10.00;;;3.93;;
60588;SDS011;46421;48.610;9.334;2023-09-08T01:05:59;8.17;;;3.80;;
60588;SDS011;46421;48.610;9.334;2023-09-08T01:08:24;8.50;;;4.00;;
60588;SDS011;46421;48.610;9.334;2023-09-08T01:10:50;6.68;;;3.25;;
60588;SDS011;46421;48.610;9.334;2023-09-08T01:13:16;6.88;;;3.60;;
60588;SDS011;46421;48.610;9.334;2023-09-08T01:15:41;7.67;;;3.30;;
60588;SDS011;46421;48.610;9.334;2023-09-08T01:18:06;7.67;;;4.10;;
60588;SDS011;46421;48.610;9.334;2023-09-08T01:20:39;6.97;;;3.30;;
60588;SDS011;46421;48.610;9.334;2023-09-08T01:25:44;7.47;;;3.33;;
60588;SDS011;46421;48.610;9.334;2023-09-08T01:28:11;6.57;;;3.50;;
60588;SDS011;46421;48.610;9.334;2023-09-08T01:30:37;7.68;;;3.67;;
60588;SDS011;46421;48.610;9.334;2023-09-08T01:33:03;6.53;;;3.60;;
60588;SDS011;46421;48.610;9.334;2023-09-08T01:35:28;7.00;;;3.20;;
60588;SDS011;46421;48.610;9.334;2023-09-08T01:37:53;6.00;;;3.67;;
60588;SDS011;46421;48.610;9.334;2023-09-08T01:40:18;6.70;;;3.60;;
60588;SDS011;46421;48.610;9.334;2023-09-08T01:42:44;8.23;;;3.83;;
60588;SDS011;46421;48.610;9.334;2023-09-08T01:45:10;8.18;;;3.85;;
60588;SDS011;46421;48.610;9.334;2023-09-08T01:47:36;7.17;;;3.77;;
60588;SDS011;46421;48.610;9.334;2023-09-08T01:50:01;7.95;;;3.17;;
60588;SDS011;46421;48.610;9.334;2023-09-08T01:52:27;7.03;;;3.37;;
60588;SDS011;46421;48.610;9.334;2023-09-08T01:54:52;8.40;;;3.67;;
60588;SDS011;46421;48.610;9.334;2023-09-08T01:57:17;7.47;;;3.80;;
60588;SDS011;46421;48.610;9.334;2023-09-08T01:59:43;6.88;;;3.67;;
60588;SDS011;46421;48.610;9.334;2023-09-08T02:04:34;6.32;;;3.03;;
60588;SDS011;46421;48.610;9.334;2023-09-08T02:07:00;7.37;;;4.23;;
60588;SDS011;46421;48.610;9.334;2023-09-08T02:09:31;7.57;;;3.07;;
60588;SDS011;46421;48.610;9.334;2023-09-08T02:11:57;6.25;;;3.40;;
60588;SDS011;46421;48.610;9.334;2023-09-08T02:14:22;7.50;;;3.87;;
60588;SDS011;46421;48.610;9.334;2023-09-08T02:16:47;7.93;;;3.67;;
60588;SDS011;46421;48.610;9.334;2023-09-08T02:19:12;7.10;;;3.37;;
60588;SDS011;46421;48.610;9.334;2023-09-08T02:21:38;7.03;;;3.60;;
60588;SDS011;46421;48.610;9.334;2023-09-08T02:24:03;8.00;;;3.63;;
60588;SDS011;46421;48.610;9.334;2023-09-08T02:26:28;6.97;;;3.60;;
60588;SDS011;46421;48.610;9.334;2023-09-08T02:28:54;6.70;;;3.15;;
60588;SDS011;46421;48.610;9.334;2023-09-08T02:31:19;8.83;;;3.93;;
60588;SDS011;46421;48.610;9.334;2023-09-08T02:33:44;8.27;;;3.53;;
60588;SDS011;46421;48.610;9.334;2023-09-08T02:36:10;6.97;;;3.13;;
60588;SDS011;46421;48.610;9.334;2023-09-08T02:38:35;7.37;;;3.60;;
60588;SDS011;46421;48.610;9.334;2023-09-08T02:41:00;6.57;;;3.50;;
60588;SDS011;46421;48.610;9.334;2023-09-08T02:43:25;6.97;;;3.87;;
60588;SDS011;46421;48.610;9.334;2023-09-08T02:45:52;6.70;;;3.20;;
60588;SDS011;46421;48.610;9.334;2023-09-08T02:48:17;6.10;;;3.50;;
60588;SDS011;46421;48.610;9.334;2023-09-08T02:50:43;8.80;;;3.90;;
60588;SDS011;46421;48.610;9.334;2023-09-08T02:53:08;6.90;;;3.22;;
60588;SDS011;46421;48.610;9.334;2023-09-08T02:55:34;9.00;;;3.77;;
60588;SDS011;46421;48.610;9.334;2023-09-08T02:57:59;7.15;;;3.63;;
60588;SDS011;46421;48.610;9.334;2023-09-08T03:00:24;8.30;;;3.43;;
60588;SDS011;46421;48.610;9.334;2023-09-08T03:02:49;6.07;;;3.20;;
60588;SDS011;46421;48.610;9.334;2023-09-08T03:05:14;8.23;;;4.07;;
60588;SDS011;46421;48.610;9.334;2023-09-08T03:07:40;7.03;;;3.17;;
60588;SDS011;46421;48.610;9.334;2023-09-08T03:10:05;7.50;;;3.37;;
60588;SDS011;46421;48.610;9.334;2023-09-08T03:12:31;7.22;;;3.33;;
60588;SDS011;46421;48.610;9.334;2023-09-08T03:14:56;8.27;;;3.40;;
60588;SDS011;46421;48.610;9.334;2023-09-08T03:17:21;7.67;;;3.10;;
60588;SDS011;46421;48.610;9.334;2023-09-08T03:19:46;8.27;;;3.50;;
60588;SDS011;46421;48.610;9.334;2023-09-08T03:22:12;7.67;;;3.77;;
60588;SDS011;46421;48.610;9.334;2023-09-08T03:24:37;7.30;;;3.67;;
60588;SDS011;46421;48.610;9.334;2023-09-08T03:27:02;6.67;;;3.23;;
60588;SDS011;46421;48.610;9.334;2023-09-08T03:29:27;6.47;;;3.13;;
60588;SDS011;46421;48.610;9.334;2023-09-08T03:31:52;7.53;;;3.87;;
60588;SDS011;46421;48.610;9.334;2023-09-08T03:34:18;7.33;;;3.30;;
60588;SDS011;46421;48.610;9.334;2023-09-08T03:36:45;7.13;;;3.40;;
60588;SDS011;46421;48.610;9.334;2023-09-08T03:39:10;7.60;;;3.43;;
60588;SDS011;46421;48.610;9.334;2023-09-08T03:41:35;7.60;;;3.43;;
60588;SDS011;46421;48.610;9.334;2023-09-08T03:44:01;8.20;;;3.97;;
60588;SDS011;46421;48.610;9.334;2023-09-08T03:46:26;8.03;;;4.27;;
60588;SDS011;46421;48.610;9.334;2023-09-08T03:48:51;6.80;;;3.63;;
60588;SDS011;46421;48.610;9.334;2023-09-08T03:51:17;7.32;;;3.58;;
60588;SDS011;46421;48.610;9.334;2023-09-08T03:53:42;6.50;;;3.07;;
60588;SDS011;46421;48.610;9.334;2023-09-08T03:56:08;7.47;;;3.55;;
60588;SDS011;46421;48.610;9.334;2023-09-08T03:58:33;7.40;;;3.93;;
60588;SDS011;46421;48.610;9.334;2023-09-08T04:00:58;7.83;;;3.93;;
60588;SDS011;46421;48.610;9.334;2023-09-08T04:03:23;8.67;;;4.10;;
60588;SDS011;46421;48.610;9.334;2023-09-08T04:05:48;6.73;;;3.73;;
60588;SDS011;46421;48.610;9.334;2023-09-08T04:08:13;7.53;;;3.57;;
60588;SDS011;46421;48.610;9.334;2023-09-08T04:10:39;8.23;;;4.30;;
60588;SDS011;46421;48.610;9.334;2023-09-08T04:13:04;7.73;;;3.50;;
60588;SDS011;46421;48.610;9.334;2023-09-08T04:15:29;6.87;;;3.67;;
60588;SDS011;46421;48.610;9.334;2023-09-08T04:17:54;6.83;;;3.43;;
60588;SDS011;46421;48.610;9.334;2023-09-08T04:20:22;8.10;;;3.42;;
60588;SDS011;46421;48.610;9.334;2023-09-08T04:22:47;8.07;;;3.80;;
60588;SDS011;46421;48.610;9.334;2023-09-08T04:25:12;6.13;;;3.45;;
60588;SDS011;46421;48.610;9.334;2023-09-08T04:27:38;7.23;;;3.33;;
60588;SDS011;46421;48.610;9.334;2023-09-08T04:30:06;6.27;;;3.53;;
60588;SDS011;46421;48.610;9.334;2023-09-08T04:32:31;8.23;;;3.63;;
60588;SDS011;46421;48.610;9.334;2023-09-08T04:34:57;6.10;;;3.13;;
60588;SDS011;46421;48.610;9.334;2023-09-08T04:37:22;6.83;;;3.80;;
60588;SDS011;46421;48.610;9.334;2023-09-08T04:39:47;8.77;;;3.40;;
60588;SDS011;46421;48.610;9.334;2023-09-08T04:42:12;6.40;;;3.23;;
60588;SDS011;46421;48.610;9.334;2023-09-08T04:44:38;6.78;;;3.35;;
60588;SDS011;46421;48.610;9.334;2023-09-08T04:47:04;10.57;;;3.42;;
60588;SDS011;46421;48.610;9.334;2023-09-08T04:49:29;9.52;;;4.45;;
60588;SDS011;46421;48.610;9.334;2023-09-08T04:51:54;6.70;;;3.50;;
60588;SDS011;46421;48.610;9.334;2023-09-08T04:54:19;7.90;;;3.57;;
60588;SDS011;46421;48.610;9.334;2023-09-08T04:56:45;8.10;;;3.70;;
60588;SDS011;46421;48.610;9.334;2023-09-08T04:59:10;9.30;;;3.50;;
60588;SDS011;46421;48.610;9.334;2023-09-08T05:01:35;6.23;;;3.13;;
60588;SDS011;46421;48.610;9.334;2023-09-08T05:04:02;6.43;;;3.15;;
60588;SDS011;46421;48.610;9.334;2023-09-08T05:06:27;7.50;;;3.60;;
60588;SDS011;46421;48.610;9.334;2023-09-08T05:08:53;7.73;;;3.67;;
60588;SDS011;46421;48.610;9.334;2023-09-08T05:11:18;5.77;;;3.07;;
60588;SDS011;46421;48.610;9.334;2023-09-08T05:13:44;7.35;;;3.22;;
60588;SDS011;46421;48.610;9.334;2023-09-08T05:16:09;7.10;;;3.47;;
60588;SDS011;46421;48.610;9.334;2023-09-08T05:18:38;7.32;;;3.40;;
60588;SDS011;46421;48.610;9.334;2023-09-08T05:21:03;8.35;;;3.63;;
60588;SDS011;46421;48.610;9.334;2023-09-08T05:23:29;6.38;;;3.28;;
60588;SDS011;46421;48.610;9.334;2023-09-08T05:25:54;7.23;;;3.53;;
60588;SDS011;46421;48.610;9.334;2023-09-08T05:28:20;6.13;;;2.97;;
60588;SDS011;46421;48.610;9.334;2023-09-08T05:30:45;8.45;;;3.83;;
60588;SDS011;46421;48.610;9.334;2023-09-08T05:33:10;6.00;;;3.07;;
60588;SDS011;46421;48.610;9.334;2023-09-08T05:35:35;6.53;;;3.17;;
60588;SDS011;46421;48.610;9.334;2023-09-08T05:38:01;7.53;;;3.50;;
60588;SDS011;46421;48.610;9.334;2023-09-08T05:40:26;8.83;;;3.70;;
60588;SDS011;46421;48.610;9.334;2023-09-08T05:42:51;6.83;;;3.17;;
60588;SDS011;46421;48.610;9.334;2023-09-08T05:45:17;8.80;;;3.65;;
60588;SDS011;46421;48.610;9.334;2023-09-08T05:47:42;7.00;;;3.73;;
60588;SDS011;46421;48.610;9.334;2023-09-08T05:50:07;10.80;;;4.03;;
60588;SDS011;46421;48.610;9.334;2023-09-08T05:52:32;7.03;;;3.72;;
60588;SDS011;46421;48.610;9.334;2023-09-08T05:54:58;6.57;;;3.38;;
60588;SDS011;46421;48.610;9.334;2023-09-08T05:57:24;7.13;;;3.38;;
60588;SDS011;46421;48.610;9.334;2023-09-08T05:59:49;7.00;;;3.67;;
60588;SDS011;46421;48.610;9.334;2023-09-08T06:02:14;7.00;;;3.50;;
60588;SDS011;46421;48.610;9.334;2023-09-08T06:04:39;6.90;;;3.47;;
60588;SDS011;46421;48.610;9.334;2023-09-08T06:07:04;6.60;;;3.63;;
60588;SDS011;46421;48.610;9.334;2023-09-08T06:09:29;7.37;;;3.67;;
60588;SDS011;46421;48.610;9.334;2023-09-08T06:11:55;7.23;;;4.00;;
60588;SDS011;46421;48.610;9.334;2023-09-08T06:14:20;7.97;;;4.23;;
60588;SDS011;46421;48.610;9.334;2023-09-08T06:16:45;7.90;;;4.15;;
60588;SDS011;46421;48.610;9.334;2023-09-08T06:19:11;6.65;;;4.10;;
60588;SDS011;46421;48.610;9.334;2023-09-08T06:21:37;8.30;;;4.00;;
60588;SDS011;46421;48.610;9.334;2023-09-08T06:24:02;7.57;;;3.87;;
60588;SDS011;46421;48.610;9.334;2023-09-08T06:26:27;8.73;;;4.70;;
60588;SDS011;46421;48.610;9.334;2023-09-08T06:28:52;7.70;;;4.20;;
60588;SDS011;46421;48.610;9.334;2023-09-08T06:31:17;6.50;;;4.27;;
60588;SDS011;46421;48.610;9.334;2023-09-08T06:33:43;7.40;;;4.33;;
60588;SDS011;46421;48.610;9.334;2023-09-08T06:36:08;8.00;;;3.97;;
60588;SDS011;46421;48.610;9.334;2023-09-08T06:38:33;7.20;;;4.18;;
60588;SDS011;46421;48.610;9.334;2023-09-08T06:40:59;7.53;;;4.05;;
60588;SDS011;46421;48.610;9.334;2023-09-08T06:43:25;7.88;;;4.13;;
60588;SDS011;46421;48.610;9.334;2023-09-08T06:45:51;7.77;;;4.33;;
60588;SDS011;46421;48.610;9.334;2023-09-08T06:48:16;6.83;;;4.00;;
60588;SDS011;46421;48.610;9.334;2023-09-08T06:50:41;6.73;;;4.23;;
60588;SDS011;46421;48.610;9.334;2023-09-08T06:53:06;7.63;;;3.93;;
60588;SDS011;46421;48.610;9.334;2023-09-08T06:55:31;7.00;;;4.10;;
60588;SDS011;46421;48.610;9.334;2023-09-08T06:57:57;8.77;;;5.00;;
60588;SDS011;46421;48.610;9.334;2023-09-08T07:00:22;9.27;;;4.75;;
60588;SDS011;46421;48.610;9.334;2023-09-08T07:02:47;7.70;;;5.10;;
60588;SDS011;46421;48.610;9.334;2023-09-08T07:05:14;7.45;;;4.30;;
60588;SDS011;46421;48.610;9.334;2023-09-08T07:07:40;7.43;;;4.57;;
60588;SDS011;46421;48.610;9.334;2023-09-08T07:10:05;8.13;;;5.05;;
60588;SDS011;46421;48.610;9.334;2023-09-08T07:12:31;10.05;;;5.00;;
60588;SDS011;46421;48.610;9.334;2023-09-08T07:14:56;9.27;;;4.63;;
60588;SDS011;46421;48.610;9.334;2023-09-08T07:17:21;7.97;;;4.38;;
60588;SDS011;46421;48.610;9.334;2023-09-08T07:19:48;7.20;;;4.40;;
60588;SDS011;46421;48.610;9.334;2023-09-08T07:22:13;7.30;;;4.50;;
60588;SDS011;46421;48.610;9.334;2023-09-08T07:24:38;7.23;;;4.40;;
60588;SDS011;46421;48.610;9.334;2023-09-08T07:27:03;7.13;;;4.30;;
60588;SDS011;46421;48.610;9.334;2023-09-08T07:29:29;8.10;;;4.90;;
60588;SDS011;46421;48.610;9.334;2023-09-08T07:31:54;7.03;;;4.35;;
60588;SDS011;46421;48.610;9.334;2023-09-08T07:34:19;7.90;;;4.57;;
60588;SDS011;46421;48.610;9.334;2023-09-08T07:36:45;8.13;;;5.00;;
60588;SDS011;46421;48.610;9.334;2023-09-08T07:39:10;7.90;;;4.90;;
60588;SDS011;46421;48.610;9.334;2023-09-08T07:41:35;8.43;;;5.10;;
60588;SDS011;46421;48.610;9.334;2023-09-08T07:44:01;6.00;;;4.38;;
60588;SDS011;46421;48.610;9.334;2023-09-08T07:46:26;10.63;;;5.23;;
60588;SDS011;46421;48.610;9.334;2023-09-08T07:48:52;8.40;;;5.00;;
60588;SDS011;46421;48.610;9.334;2023-09-08T07:51:17;9.43;;;5.22;;
60588;SDS011;46421;48.610;9.334;2023-09-08T07:56:07;8.25;;;5.13;;
60588;SDS011;46421;48.610;9.334;2023-09-08T07:58:32;6.73;;;5.03;;
60588;SDS011;46421;48.610;9.334;2023-09-08T08:03:23;6.85;;;4.68;;
60588;SDS011;46421;48.610;9.334;2023-09-08T08:08:13;8.75;;;5.18;;
60588;SDS011;46421;48.610;9.334;2023-09-08T08:13:04;8.57;;;4.65;;
60588;SDS011;46421;48.610;9.334;2023-09-08T08:17:54;7.80;;;4.60;;
60588;SDS011;46421;48.610;9.334;2023-09-08T08:22:44;6.97;;;4.20;;
60588;SDS011;46421;48.610;9.334;2023-09-08T08:27:36;8.20;;;4.65;;
60588;SDS011;46421;48.610;9.334;2023-09-08T08:30:01;6.43;;;4.27;;
60588;SDS011;46421;48.610;9.334;2023-09-08T08:34:51;6.87;;;4.27;;
60588;SDS011;46421;48.610;9.334;2023-09-08T08:37:17;7.40;;;4.43;;
60588;SDS011;46421;48.610;9.334;2023-09-08T08:39:42;7.95;;;4.50;;
60588;SDS011;46421;48.610;9.334;2023-09-08T08:42:08;6.67;;;4.57;;
60588;SDS011;46421;48.610;9.334;2023-09-08T08:44:34;6.70;;;5.05;;
60588;SDS011;46421;48.610;9.334;2023-09-08T08:47:00;6.30;;;4.93;;
60588;SDS011;46421;48.610;9.334;2023-09-08T08:49:25;7.32;;;4.95;;
60588;SDS011;46421;48.610;9.334;2023-09-08T08:51:52;9.10;;;5.28;;
60588;SDS011;46421;48.610;9.334;2023-09-08T08:54:17;6.83;;;5.03;;
60588;SDS011;46421;48.610;9.334;2023-09-08T08:56:42;6.63;;;5.10;;
60588;SDS011;46421;48.610;9.334;2023-09-08T08:59:09;6.40;;;4.78;;
60588;SDS011;46421;48.610;9.334;2023-09-08T09:01:34;6.95;;;4.45;;
60588;SDS011;46421;48.610;9.334;2023-09-08T09:04:00;6.95;;;4.88;;
60588;SDS011;46421;48.610;9.334;2023-09-08T09:06:25;6.60;;;4.60;;
60588;SDS011;46421;48.610;9.334;2023-09-08T09:08:50;6.50;;;5.07;;
60588;SDS011;46421;48.610;9.334;2023-09-08T09:11:16;7.47;;;5.00;;
60588;SDS011;46421;48.610;9.334;2023-09-08T09:13:41;8.15;;;5.15;;
60588;SDS011;46421;48.610;9.334;2023-09-08T09:16:06;7.10;;;5.43;;
60588;SDS011;46421;48.610;9.334;2023-09-08T09:18:45;7.05;;;4.70;;
60588;SDS011;46421;48.610;9.334;2023-09-08T09:21:17;7.32;;;4.68;;
60588;SDS011;46421;48.610;9.334;2023-09-08T09:23:42;6.50;;;5.47;;
60588;SDS011;46421;48.610;9.334;2023-09-08T09:26:07;7.63;;;5.20;;
60588;SDS011;46421;48.610;9.334;2023-09-08T09:28:32;7.40;;;5.40;;
60588;SDS011;46421;48.610;9.334;2023-09-08T09:30:58;8.40;;;5.20;;
60588;SDS011;46421;48.610;9.334;2023-09-08T09:33:24;7.43;;;4.90;;
60588;SDS011;46421;48.610;9.334;2023-09-08T09:35:50;7.63;;;5.80;;
60588;SDS011;46421;48.610;9.334;2023-09-08T09:38:16;6.50;;;4.50;;
60588;SDS011;46421;48.610;9.334;2023-09-08T09:40:43;8.20;;;5.00;;
60588;SDS011;46421;48.610;9.334;2023-09-08T09:43:09;7.43;;;5.22;;
60588;SDS011;46421;48.610;9.334;2023-09-08T09:45:34;6.75;;;4.97;;
60588;SDS011;46421;48.610;9.334;2023-09-08T09:48:02;7.72;;;5.50;;
60588;SDS011;46421;48.610;9.334;2023-09-08T09:50:48;7.35;;;5.00;;
60588;SDS011;46421;48.610;9.334;2023-09-08T09:53:14;7.20;;;5.28;;
60588;SDS011;46421;48.610;9.334;2023-09-08T09:55:41;7.28;;;5.18;;
60588;SDS011;46421;48.610;9.334;2023-09-08T09:58:06;6.85;;;4.43;;
60588;SDS011;46421;48.610;9.334;2023-09-08T10:00:32;7.60;;;5.22;;
60588;SDS011;46421;48.610;9.334;2023-09-08T10:02:58;6.47;;;5.57;;
60588;SDS011;46421;48.610;9.334;2023-09-08T10:05:24;6.70;;;4.53;;
60588;SDS011;46421;48.610;9.334;2023-09-08T10:07:49;8.13;;;5.97;;
60588;SDS011;46421;48.610;9.334;2023-09-08T10:10:15;7.57;;;5.80;;
60588;SDS011;46421;48.610;9.334;2023-09-08T10:12:42;8.38;;;5.60;;
60588;SDS011;46421;48.610;9.334;2023-09-08T10:15:08;7.63;;;6.55;;
60588;SDS011;46421;48.610;9.334;2023-09-08T10:17:35;6.70;;;5.97;;
60588;SDS011;46421;48.610;9.334;2023-09-08T10:20:01;7.80;;;6.00;;
60588;SDS011;46421;48.610;9.334;2023-09-08T10:22:28;7.93;;;6.47;;
60588;SDS011;46421;48.610;9.334;2023-09-08T10:24:54;6.85;;;6.05;;
60588;SDS011;46421;48.610;9.334;2023-09-08T10:27:20;6.07;;;5.15;;
60588;SDS011;46421;48.610;9.334;2023-09-08T10:29:46;6.72;;;6.03;;
60588;SDS011;46421;48.610;9.334;2023-09-08T10:32:12;7.50;;;5.85;;
60588;SDS011;46421;48.610;9.334;2023-09-08T10:34:38;7.57;;;6.35;;
60588;SDS011;46421;48.610;9.334;2023-09-08T10:37:17;6.97;;;6.28;;
60588;SDS011;46421;48.610;9.334;2023-09-08T10:39:42;8.10;;;6.70;;
60588;SDS011;46421;48.610;9.334;2023-09-08T10:42:19;6.73;;;6.00;;
60588;SDS011;46421;48.610;9.334;2023-09-08T10:45:13;6.93;;;6.22;;
60588;SDS011;46421;48.610;9.334;2023-09-08T10:47:33;7.45;;;6.65;;
60588;SDS011;46421;48.610;9.334;2023-09-08T10:50:04;8.02;;;6.63;;
60588;SDS011;46421;48.610;9.334;2023-09-08T10:52:30;7.18;;;6.03;;
60588;SDS011;46421;48.610;9.334;2023-09-08T10:54:57;7.20;;;6.13;;
60588;SDS011;46421;48.610;9.334;2023-09-08T10:57:24;6.50;;;5.87;;
60588;SDS011;46421;48.610;9.334;2023-09-08T11:00:00;6.75;;;6.05;;
60588;SDS011;46421;48.610;9.334;2023-09-08T11:02:33;6.88;;;6.10;;
60588;SDS011;46421;48.610;9.334;2023-09-08T11:04:59;7.95;;;6.03;;
60588;SDS011;46421;48.610;9.334;2023-09-08T11:07:24;6.50;;;5.87;;
60588;SDS011;46421;48.610;9.334;2023-09-08T11:09:50;7.20;;;6.50;;
60588;SDS011;46421;48.610;9.334;2023-09-08T11:12:15;8.13;;;5.70;;
60588;SDS011;46421;48.610;9.334;2023-09-08T11:14:41;8.73;;;6.18;;
60588;SDS011;46421;48.610;9.334;2023-09-08T11:17:06;8.20;;;6.53;;
60588;SDS011;46421;48.610;9.334;2023-09-08T11:19:47;9.33;;;6.17;;
60588;SDS011;46421;48.610;9.334;2023-09-08T11:22:12;7.03;;;6.28;;
60588;SDS011;46421;48.610;9.334;2023-09-08T11:24:38;7.13;;;6.53;;
60588;SDS011;46421;48.610;9.334;2023-09-08T11:27:04;7.22;;;6.53;;
60588;SDS011;46421;48.610;9.334;2023-09-08T11:29:29;7.15;;;6.45;;
60588;SDS011;46421;48.610;9.334;2023-09-08T11:31:54;7.47;;;6.67;;
60588;SDS011;46421;48.610;9.334;2023-09-08T11:34:20;7.90;;;5.80;;
60588;SDS011;46421;48.610;9.334;2023-09-08T11:36:46;7.22;;;6.10;;
60588;SDS011;46421;48.610;9.334;2023-09-08T11:39:11;7.23;;;6.53;;
60588;SDS011;46421;48.610;9.334;2023-09-08T11:41:36;6.80;;;5.88;;
60588;SDS011;46421;48.610;9.334;2023-09-08T11:44:02;6.67;;;6.03;;
60588;SDS011;46421;48.610;9.334;2023-09-08T11:46:27;7.85;;;5.70;;
60588;SDS011;46421;48.610;9.334;2023-09-08T11:48:52;6.37;;;5.77;;
60588;SDS011;46421;48.610;9.334;2023-09-08T11:51:22;6.15;;;4.82;;
60588;SDS011;46421;48.610;9.334;2023-09-08T11:53:47;6.70;;;5.10;;
60588;SDS011;46421;48.610;9.334;2023-09-08T11:56:12;7.03;;;5.93;;
60588;SDS011;46421;48.610;9.334;2023-09-08T11:58:38;6.80;;;5.90;;
60588;SDS011;46421;48.610;9.334;2023-09-08T12:01:03;6.78;;;6.07;;
60588;SDS011;46421;48.610;9.334;2023-09-08T12:03:29;7.32;;;5.50;;
60588;SDS011;46421;48.610;9.334;2023-09-08T12:05:54;7.07;;;6.30;;
60588;SDS011;46421;48.610;9.334;2023-09-08T12:08:20;6.22;;;5.32;;
60588;SDS011;46421;48.610;9.334;2023-09-08T12:10:45;6.32;;;5.60;;
60588;SDS011;46421;48.610;9.334;2023-09-08T12:13:11;6.78;;;5.50;;
60588;SDS011;46421;48.610;9.334;2023-09-08T12:15:39;6.20;;;5.40;;
60588;SDS011;46421;48.610;9.334;2023-09-08T12:18:06;6.10;;;5.50;;
60588;SDS011;46421;48.610;9.334;2023-09-08T12:20:32;6.55;;;5.95;;
60588;SDS011;46421;48.610;9.334;2023-09-08T12:22:59;7.03;;;5.57;;
60588;SDS011;46421;48.610;9.334;2023-09-08T12:25:26;5.70;;;5.10;;
60588;SDS011;46421;48.610;9.334;2023-09-08T12:27:53;6.00;;;4.97;;
60588;SDS011;46421;48.610;9.334;2023-09-08T12:30:22;6.65;;;5.95;;
60588;SDS011;46421;48.610;9.334;2023-09-08T12:32:55;6.10;;;5.50;;
60588;SDS011;46421;48.610;9.334;2023-09-08T12:35:20;7.10;;;6.45;;
60588;SDS011;46421;48.610;9.334;2023-09-08T12:37:59;9.07;;;5.55;;
60588;SDS011;46421;48.610;9.334;2023-09-08T12:40:28;8.40;;;5.97;;
60588;SDS011;46421;48.610;9.334;2023-09-08T12:42:53;6.85;;;6.05;;
60588;SDS011;46421;48.610;9.334;2023-09-08T12:45:20;7.30;;;6.03;;
60588;SDS011;46421;48.610;9.334;2023-09-08T12:47:45;7.18;;;6.22;;
60588;SDS011;46421;48.610;9.334;2023-09-08T12:50:10;5.60;;;4.50;;
60588;SDS011;46421;48.610;9.334;2023-09-08T12:52:35;6.70;;;4.80;;
60588;SDS011;46421;48.610;9.334;2023-09-08T12:55:01;6.77;;;5.17;;
60588;SDS011;46421;48.610;9.334;2023-09-08T12:57:26;11.35;;;6.80;;
60588;SDS011;46421;48.610;9.334;2023-09-08T12:59:51;8.90;;;6.17;;
60588;SDS011;46421;48.610;9.334;2023-09-08T13:02:16;7.30;;;5.20;;
60588;SDS011;46421;48.610;9.334;2023-09-08T13:04:42;7.00;;;5.37;;
60588;SDS011;46421;48.610;9.334;2023-09-08T13:07:09;7.72;;;6.60;;
60588;SDS011;46421;48.610;9.334;2023-09-08T13:09:34;7.30;;;5.80;;
60588;SDS011;46421;48.610;9.334;2023-09-08T13:11:59;6.93;;;5.93;;
60588;SDS011;46421;48.610;9.334;2023-09-08T13:14:25;6.93;;;5.43;;
60588;SDS011;46421;48.610;9.334;2023-09-08T13:16:50;8.13;;;5.20;;
60588;SDS011;46421;48.610;9.334;2023-09-08T13:19:15;6.60;;;5.17;;
60588;SDS011;46421;48.610;9.334;2023-09-08T13:21:41;8.05;;;5.57;;
60588;SDS011;46421;48.610;9.334;2023-09-08T13:24:06;6.37;;;5.33;;
60588;SDS011;46421;48.610;9.334;2023-09-08T13:26:32;6.80;;;5.85;;
60588;SDS011;46421;48.610;9.334;2023-09-08T13:28:57;7.30;;;5.33;;
60588;SDS011;46421;48.610;9.334;2023-09-08T13:31:22;6.93;;;5.17;;
60588;SDS011;46421;48.610;9.334;2023-09-08T13:33:47;6.43;;;5.73;;
60588;SDS011;46421;48.610;9.334;2023-09-08T13:36:12;7.90;;;6.23;;
60588;SDS011;46421;48.610;9.334;2023-09-08T13:38:38;6.55;;;5.13;;
60588;SDS011;46421;48.610;9.334;2023-09-08T13:41:03;7.95;;;5.45;;
60588;SDS011;46421;48.610;9.334;2023-09-08T13:43:28;8.47;;;5.97;;
60588;SDS011;46421;48.610;9.334;2023-09-08T13:45:53;8.03;;;4.63;;
60588;SDS011;46421;48.610;9.334;2023-09-08T13:48:18;7.17;;;5.07;;
60588;SDS011;46421;48.610;9.334;2023-09-08T13:50:44;6.03;;;4.63;;
60588;SDS011;46421;48.610;9.334;2023-09-08T13:53:09;6.47;;;5.35;;
60588;SDS011;46421;48.610;9.334;2023-09-08T13:55:34;7.80;;;5.03;;
60588;SDS011;46421;48.610;9.334;2023-09-08T13:57:59;6.23;;;5.53;;
60588;SDS011;46421;48.610;9.334;2023-09-08T14:00:24;6.27;;;5.63;;
60588;SDS011;46421;48.610;9.334;2023-09-08T14:02:50;5.77;;;5.17;;
60588;SDS011;46421;48.610;9.334;2023-09-08T14:05:15;7.45;;;5.30;;
60588;SDS011;46421;48.610;9.334;2023-09-08T14:07:40;8.33;;;5.33;;
60588;SDS011;46421;48.610;9.334;2023-09-08T14:10:06;7.23;;;4.70;;
60588;SDS011;46421;48.610;9.334;2023-09-08T14:12:32;7.10;;;4.70;;
60588;SDS011;46421;48.610;9.334;2023-09-08T14:14:58;6.68;;;4.85;;
60588;SDS011;46421;48.610;9.334;2023-09-08T14:17:23;7.07;;;5.33;;
60588;SDS011;46421;48.610;9.334;2023-09-08T14:19:48;8.80;;;5.40;;
60588;SDS011;46421;48.610;9.334;2023-09-08T14:22:14;6.75;;;5.32;;
60588;SDS011;46421;48.610;9.334;2023-09-08T14:24:39;7.17;;;4.47;;
60588;SDS011;46421;48.610;9.334;2023-09-08T14:27:04;6.83;;;4.73;;
60588;SDS011;46421;48.610;9.334;2023-09-08T14:31:54;6.00;;;4.63;;
60588;SDS011;46421;48.610;9.334;2023-09-08T14:36:45;6.47;;;4.35;;
60588;SDS011;46421;48.610;9.334;2023-09-08T14:41:35;7.68;;;4.40;;
60588;SDS011;46421;48.610;9.334;2023-09-08T14:46:25;6.80;;;4.78;;
60588;SDS011;46421;48.610;9.334;2023-09-08T14:51:16;5.28;;;3.83;;
60588;SDS011;46421;48.610;9.334;2023-09-08T14:56:06;7.10;;;3.78;;
60588;SDS011;46421;48.610;9.334;2023-09-08T15:00:59;7.75;;;3.78;;
60588;SDS011;46421;48.610;9.334;2023-09-08T15:03:31;6.70;;;3.38;;
60588;SDS011;46421;48.610;9.334;2023-09-08T15:05:57;6.82;;;3.88;;
60588;SDS011;46421;48.610;9.334;2023-09-08T15:08:22;7.17;;;3.60;;
60588;SDS011;46421;48.610;9.334;2023-09-08T15:10:47;6.43;;;3.93;;
60588;SDS011;46421;48.610;9.334;2023-09-08T15:13:12;6.27;;;3.70;;
60588;SDS011;46421;48.610;9.334;2023-09-08T15:15:38;5.53;;;3.70;;
60588;SDS011;46421;48.610;9.334;2023-09-08T15:18:03;7.57;;;3.30;;
60588;SDS011;46421;48.610;9.334;2023-09-08T15:20:28;5.68;;;3.65;;